KLQK

Details ICAO KLQK
Name Pickens Co
Region United States
Timezone America/New_York (UTC-4.0)
Plans Departing 1
Arriving 12
Stats Elevation 1,013 ft / 309 m (AMSL)
Location 34.809972° -82.702881°
Runways 1
Magnetic Variation 6.477° W
Sunrise 2018-05-22 10:24:26 UTC / 2018-05-22 06:24:26 Local
Sunset 2018-05-23 00:33:24 UTC / 2018-05-22 20:33:24 Local
Advertisement - Login to hide

Runways

ID Width Length Bearing (true) Bearing (mag) Surface Threshold Offset Overrun Length
05 100 ft / 30 m 5,003 ft / 1,525 m 43.77° 50.25° Asphalt 0 ft / 0 m 0 ft / 0 m
23 100 ft / 30 m 5,003 ft / 1,525 m 223.77° 230.25° Asphalt 0 ft / 0 m 0 ft / 0 m

Map

Weather


0- 5 10 15 20 25 30 35+ Temperature / ° C

Clouds and Precipitation
Forecast for 2018-05-23 00:00 UTC. Updated 42 minutes ago

Ground ~20,000 ft ~40,000 ft Winds

METAR

KLQK 222355Z AUTO 00000KT 10SM SCT041 23/22 A3006 RMK AO2 T02320215 10256 20205

TAF

Not found

Frequencies

Recorded 120.00 MHz AWOS 3
Approach 118.80 MHz GREER APP/DEP
Unicom 122.80 MHz CTAF/UNICOM
Warning: Do not use this data for real-world aviation or navigation. No guarantee of current accuracy is given.